Time;durP1;ratioP1;P1;durP2;ratioP2;P2;SDS_P1;SDS_P2;PMS_P1;PMS_P2;Temp;Humidity;BMP_temperature;BMP_pressure;BME280_temperature;BME280_humidity;BME280_pressure;Samples;Min_cycle;Max_cycle;Signal;HPM_P1;HPM_P2
2022/11/08 00:01:40;;;;;;;17.37;6.40;;;;;;;13.03;62.49;99536.31;6187067;23;20145;-89
2022/11/08 00:04:11;;;;;;;14.47;6.00;;;;;;;13.04;62.34;99540.66;6186409;23;20159;-89
2022/11/08 00:14:51;;;;;;;16.87;6.83;;;;;;;13.05;62.69;99531.81;6186973;23;20172;-89
2022/11/08 00:17:18;;;;;;;12.83;6.50;;;;;;;13.00;62.33;99530.41;6186208;23;20607;-89
2022/11/08 00:19:44;;;;;;;12.63;5.97;;;;;;;12.97;62.79;99530.56;6161465;23;20234;-89
2022/11/08 00:22:11;;;;;;;10.10;5.90;;;;;;;12.98;63.28;99521.72;6186224;23;20613;-89
2022/11/08 00:24:36;;;;;;;12.97;5.83;;;;;;;12.93;63.44;99517.56;6186514;23;20158;-89
2022/11/08 00:27:04;;;;;;;16.40;6.03;;;;;;;12.99;63.28;99528.69;6186561;23;20151;-88
2022/11/08 00:29:29;;;;;;;16.47;7.10;;;;;;;12.99;63.53;99523.41;6159785;23;20192;-89
2022/11/08 00:31:55;;;;;;;10.03;5.63;;;;;;;12.95;63.37;99526.22;6186815;23;20234;-89
2022/11/08 00:34:20;;;;;;;10.37;5.40;;;;;;;12.87;63.75;99520.53;6184910;23;20199;-88
2022/11/08 00:36:46;;;;;;;12.17;5.00;;;;;;;12.82;64.24;99519.94;6184857;23;20160;-88
2022/11/08 00:39:11;;;;;;;14.80;5.37;;;;;;;12.87;63.82;99514.41;6186004;23;20655;-89
2022/11/08 00:41:36;;;;;;;10.70;5.63;;;;;;;12.97;63.67;99514.78;6159609;23;20160;-89
2022/11/08 00:44:02;;;;;;;8.87;5.10;;;;;;;13.00;63.43;99511.97;6186313;23;20588;-89
2022/11/08 00:46:28;;;;;;;13.07;5.50;;;;;;;12.86;64.21;99513.59;6185922;23;20163;-89
2022/11/08 00:48:53;;;;;;;11.37;5.50;;;;;;;12.78;64.16;99513.19;6186003;23;20250;-89
2022/11/08 00:51:18;;;;;;;10.77;4.70;;;;;;;12.69;64.95;99513.66;6184582;23;20517;-88
2022/11/08 00:53:44;;;;;;;12.13;4.90;;;;;;;12.73;64.92;99509.94;6186274;23;20170;-88
2022/11/08 00:56:11;;;;;;;12.33;5.03;;;;;;;12.72;65.26;99513.50;6186174;23;20158;-88
2022/11/08 00:58:37;;;;;;;12.03;5.37;;;;;;;12.69;65.81;99511.03;6186189;23;20152;-89
2022/11/08 01:01:14;;;;;;;10.17;5.10;;;;;;;12.73;65.70;99515.22;6186153;23;20279;-89
2022/11/08 01:03:40;;;;;;;10.70;4.40;;;;;;;12.73;65.43;99511.72;6186117;23;20164;-89
2022/11/08 01:06:09;;;;;;;9.57;5.07;;;;;;;12.72;65.84;99505.63;6185752;23;20153;-88
2022/11/08 01:08:34;;;;;;;13.70;4.83;;;;;;;12.70;65.36;99520.63;6160071;23;20156;-89
2022/11/08 01:11:02;;;;;;;11.90;5.43;;;;;;;12.69;65.46;99518.06;6184445;23;20183;-88
2022/11/08 01:13:28;;;;;;;9.37;4.90;;;;;;;12.70;65.27;99514.53;6185734;23;20227;-88
2022/11/08 01:15:53;;;;;;;12.43;4.80;;;;;;;12.76;64.53;99509.75;6159737;23;20255;-88
2022/11/08 01:18:19;;;;;;;8.07;4.50;;;;;;;12.84;64.49;99501.47;6185591;23;20151;-88
2022/11/08 01:20:47;;;;;;;9.83;5.83;;;;;;;12.88;63.96;99495.09;6186302;23;20214;-88
2022/11/08 01:23:13;;;;;;;18.10;5.77;;;;;;;12.87;64.17;99499.50;6160312;23;20166;-88
2022/11/08 01:25:40;;;;;;;9.77;5.43;;;;;;;12.83;63.71;99502.38;6185562;23;20151;-89
2022/11/08 01:28:06;;;;;;;17.40;5.60;;;;;;;12.76;63.96;99501.03;6185500;23;20148;-88
2022/11/08 01:30:36;;;;;;;14.77;4.03;;;;;;;12.68;64.08;99496.19;6185320;23;20187;-89
2022/11/08 01:33:02;;;;;;;10.90;4.67;;;;;;;12.60;63.79;99494.94;6185774;23;20163;-89
2022/11/08 01:35:29;;;;;;;12.70;5.50;;;;;;;12.53;64.20;99499.66;6185924;23;20531;-89
2022/11/08 01:37:54;;;;;;;15.87;6.53;;;;;;;12.48;64.06;99504.31;6185539;23;20147;-89
2022/11/08 01:40:20;;;;;;;26.17;11.43;;;;;;;12.46;63.62;99500.06;6185502;23;20157;-89
2022/11/08 01:42:45;;;;;;;22.23;11.50;;;;;;;12.40;63.36;99503.03;6184659;23;20155;-89
2022/11/08 01:45:11;;;;;;;19.67;10.13;;;;;;;12.35;63.40;99505.91;6159472;23;20155;-88
2022/11/08 01:47:36;;;;;;;19.67;9.30;;;;;;;12.26;63.01;99498.53;6159415;23;20155;-89
2022/11/08 01:50:06;;;;;;;20.73;9.23;;;;;;;12.25;62.84;99505.56;6159606;23;20185;-89
2022/11/08 01:52:41;;;;;;;15.90;7.80;;;;;;;12.24;62.64;99503.88;6185080;23;20155;-89
2022/11/08 01:55:25;;;;;;;13.17;7.10;;;;;;;12.24;62.29;99503.00;6159440;23;20149;-89
2022/11/08 01:58:09;;;;;;;15.83;8.17;;;;;;;12.16;61.94;99506.03;6184123;23;20148;-89
2022/11/08 02:00:37;;;;;;;18.77;7.87;;;;;;;12.07;61.92;99501.28;6185760;23;20139;-88
2022/11/08 02:03:06;;;;;;;16.90;7.17;;;;;;;12.07;62.15;99500.44;6185282;23;20152;-89
2022/11/08 02:05:32;;;;;;;17.30;7.93;;;;;;;12.05;61.92;99503.16;6159227;23;20155;-89
2022/11/08 02:08:11;;;;;;;15.83;7.40;;;;;;;12.02;61.69;99502.47;6185545;23;20245;-90
2022/11/08 02:10:40;;;;;;;10.57;6.30;;;;;;;11.94;62.31;99504.63;6185848;23;20175;-89
2022/11/08 02:13:12;;;;;;;15.20;7.80;;;;;;;11.87;62.37;99500.66;6159329;23;20244;-89
2022/11/08 02:15:38;;;;;;;20.77;7.33;;;;;;;11.88;62.63;99495.28;6185730;23;20230;-89
2022/11/08 02:18:04;;;;;;;13.00;6.37;;;;;;;11.83;63.05;99497.31;6185253;23;20239;-89
2022/11/08 02:20:30;;;;;;;14.27;6.67;;;;;;;11.85;63.14;99492.81;6185260;23;20154;-89
2022/11/08 02:23:05;;;;;;;13.53;6.47;;;;;;;11.83;63.12;99504.34;6185786;23;20193;-89
2022/11/08 02:25:30;;;;;;;12.93;6.10;;;;;;;11.82;63.38;99502.66;6185532;23;20140;-89
2022/11/08 02:27:56;;;;;;;20.40;7.03;;;;;;;11.86;63.34;99499.78;6185198;23;20524;-89
2022/11/08 02:30:21;;;;;;;13.07;6.13;;;;;;;11.82;63.55;99500.03;6184926;23;20670;-89
2022/11/08 02:32:46;;;;;;;12.83;6.60;;;;;;;11.87;63.36;99498.00;6185184;23;20222;-89
2022/11/08 02:35:17;;;;;;;12.30;5.53;;;;;;;11.86;63.37;99497.16;6159483;23;20155;-89
2022/11/08 02:37:43;;;;;;;10.27;5.33;;;;;;;11.90;63.62;99500.47;6185540;23;20618;-88
2022/11/08 02:40:09;;;;;;;18.40;5.63;;;;;;;11.91;63.37;99499.53;6185058;23;20157;-88
2022/11/08 02:42:37;;;;;;;10.47;5.27;;;;;;;11.92;63.71;99498.63;6185118;23;20478;-88
2022/11/08 02:45:04;;;;;;;13.57;6.07;;;;;;;11.98;63.79;99495.66;6159048;23;20178;-88
2022/11/08 02:47:29;;;;;;;12.70;5.57;;;;;;;11.99;64.06;99497.38;6183884;23;20158;-89
2022/11/08 02:49:55;;;;;;;12.90;5.43;;;;;;;11.95;64.27;99491.41;6185625;23;20184;-89
2022/11/08 02:52:20;;;;;;;12.73;5.07;;;;;;;11.98;64.45;99488.63;6185074;23;20162;-88
2022/11/08 02:54:46;;;;;;;13.00;5.63;;;;;;;11.95;64.69;99491.41;6159102;23;20492;-88
2022/11/08 02:57:11;;;;;;;12.57;6.17;;;;;;;12.01;64.83;99485.00;6183802;23;20559;-88
2022/11/08 02:59:36;;;;;;;10.03;6.30;;;;;;;12.00;64.90;99483.31;6183821;23;20165;-88
2022/11/08 03:02:02;;;;;;;16.47;6.50;;;;;;;12.03;64.50;99489.22;6158985;23;20167;-89
2022/11/08 03:04:27;;;;;;;13.13;7.30;;;;;;;11.99;64.46;99481.59;6186161;23;20171;-89
2022/11/08 03:06:53;;;;;;;13.93;7.53;;;;;;;12.05;64.22;99491.78;6186893;23;20151;-89
2022/11/08 03:09:18;;;;;;;21.37;7.23;;;;;;;12.08;63.85;99491.63;6160851;23;20155;-88
2022/11/08 03:11:44;;;;;;;18.80;7.60;;;;;;;12.15;63.67;99490.38;6160833;23;20551;-89
2022/11/08 03:14:09;;;;;;;10.87;5.97;;;;;;;12.15;63.28;99487.75;6186794;23;20150;-89
2022/11/08 03:16:35;;;;;;;16.20;5.97;;;;;;;12.20;62.55;99481.31;6160815;23;20150;-89
2022/11/08 03:19:00;;;;;;;15.27;6.33;;;;;;;12.23;62.84;99486.41;6186751;23;20212;-89
2022/11/08 03:21:25;;;;;;;10.17;5.57;;;;;;;12.18;62.92;99490.22;6186758;23;20143;-88
2022/11/08 03:23:51;;;;;;;12.80;6.47;;;;;;;12.22;62.94;99489.09;6186769;23;20160;-89
2022/11/08 03:26:16;;;;;;;13.17;6.97;;;;;;;12.23;63.06;99493.44;6185887;23;20199;-88
2022/11/08 03:28:42;;;;;;;12.90;6.70;;;;;;;12.14;62.97;99493.91;6187105;23;20178;-89
2022/11/08 03:31:07;;;;;;;10.20;5.20;;;;;;;12.18;63.18;99490.22;6186669;23;20181;-89
2022/11/08 03:33:32;;;;;;;13.47;4.80;;;;;;;12.20;63.41;99497.09;6185487;23;20585;-89
2022/11/08 03:35:58;;;;;;;10.77;5.40;;;;;;;12.15;63.36;99499.13;6187319;23;20169;-89
2022/11/08 03:38:23;;;;;;;10.93;5.13;;;;;;;12.21;63.56;99500.56;6186639;23;20218;-88
2022/11/08 03:40:49;;;;;;;13.03;5.83;;;;;;;12.28;63.44;99494.91;6187233;23;20158;-89
2022/11/08 03:43:14;;;;;;;8.70;4.57;;;;;;;12.28;63.07;99496.66;6160599;23;20150;-89
2022/11/08 03:45:40;;;;;;;10.33;4.80;;;;;;;12.30;63.17;99492.19;6160906;23;20156;-89
2022/11/08 03:48:06;;;;;;;10.40;4.67;;;;;;;12.30;62.95;99484.28;6187198;23;20519;-88
2022/11/08 03:50:31;;;;;;;12.90;6.00;;;;;;;12.33;63.56;99484.97;6186707;23;20187;-89
2022/11/08 03:52:57;;;;;;;10.87;4.40;;;;;;;12.35;63.66;99490.16;6187138;23;20188;-88
2022/11/08 03:55:25;;;;;;;11.67;6.13;;;;;;;12.36;63.55;99497.09;6185266;23;20161;-88
2022/11/08 03:57:51;;;;;;;17.37;7.73;;;;;;;12.39;63.35;99488.22;6186432;23;20178;-88
2022/11/08 04:00:19;;;;;;;17.57;8.53;;;;;;;12.35;63.50;99484.88;6186386;23;20597;-88
2022/11/08 04:02:45;;;;;;;19.87;7.07;;;;;;;12.41;63.46;99497.72;6186433;23;20598;-89
2022/11/08 04:05:11;;;;;;;13.87;7.80;;;;;;;12.41;63.70;99489.81;6186405;23;20231;-88
2022/11/08 04:07:37;;;;;;;18.70;8.43;;;;;;;12.35;63.83;99500.66;6186346;23;20213;-89
2022/11/08 04:10:04;;;;;;;14.10;6.90;;;;;;;12.39;63.72;99494.31;6186576;23;20202;-89
2022/11/08 04:15:16;;;;;;;15.77;7.70;;;;;;;12.45;63.46;99493.13;6186724;23;20147;-89
2022/11/08 04:23:31;;;;;;;19.73;8.30;;;;;;;12.49;63.37;99492.88;6186667;23;20277;-88
2022/11/08 04:25:59;;;;;;;16.00;7.43;;;;;;;12.53;63.03;99489.13;6160061;23;20575;-88
2022/11/08 04:28:33;;;;;;;23.70;9.37;;;;;;;12.51;63.49;99483.13;6160192;23;20170;-88
2022/11/08 04:31:04;;;;;;;19.00;9.67;;;;;;;12.58;63.34;99488.91;6186089;23;20177;-88
2022/11/08 04:33:30;;;;;;;16.77;6.33;;;;;;;12.61;63.40;99486.09;6160044;23;20175;-88
2022/11/08 04:36:00;;;;;;;13.67;6.63;;;;;;;12.63;63.18;99486.88;6186453;23;20578;-89
2022/11/08 04:38:26;;;;;;;13.13;7.60;;;;;;;12.50;64.41;99491.94;6160099;23;20150;-88
2022/11/08 04:40:51;;;;;;;16.30;6.50;;;;;;;12.39;65.20;99491.69;6186025;23;20143;-89
2022/11/08 04:43:16;;;;;;;15.73;6.03;;;;;;;12.34;65.88;99491.09;6186112;23;20615;-88
2022/11/08 04:45:42;;;;;;;15.00;5.83;;;;;;;12.32;66.09;99495.56;6185959;23;20525;-89
2022/11/08 04:48:09;;;;;;;11.20;5.13;;;;;;;12.26;66.49;99496.72;6185947;23;20574;-89
2022/11/08 04:50:35;;;;;;;13.73;6.00;;;;;;;12.34;67.02;99498.97;6185915;23;20194;-88
2022/11/08 04:53:00;;;;;;;13.57;6.00;;;;;;;12.41;67.08;99500.34;6160050;23;20155;-89
2022/11/08 04:55:26;;;;;;;11.33;6.20;;;;;;;12.43;67.22;99500.25;6159918;23;20241;-89
2022/11/08 04:57:56;;;;;;;13.63;6.23;;;;;;;12.41;67.39;99495.06;6159873;23;20608;-89
2022/11/08 05:00:21;;;;;;;13.17;6.73;;;;;;;12.46;67.18;99500.06;6185761;23;20145;-88
2022/11/08 05:02:47;;;;;;;11.67;6.30;;;;;;;12.45;67.09;99496.59;6185820;23;20151;-88
2022/11/08 05:05:12;;;;;;;15.87;6.27;;;;;;;12.47;67.06;99494.75;6159724;23;20170;-88
2022/11/08 05:07:38;;;;;;;12.53;6.63;;;;;;;12.48;66.75;99499.06;6185723;23;20605;-89
2022/11/08 05:10:03;;;;;;;15.80;6.97;;;;;;;12.48;66.51;99501.69;6185568;23;20175;-88
2022/11/08 05:12:29;;;;;;;14.07;6.50;;;;;;;12.51;66.15;99498.91;6185683;23;20147;-89
2022/11/08 05:14:54;;;;;;;16.00;6.33;;;;;;;12.54;66.46;99501.38;6159652;23;20217;-89
2022/11/08 05:17:19;;;;;;;14.00;6.10;;;;;;;12.56;66.50;99498.63;6184505;23;20166;-89
2022/11/08 05:25:13;;;;;;;13.10;5.93;;;;;;;12.55;66.88;99507.47;6186331;23;20147;-89
2022/11/08 05:27:38;;;;;;;15.97;6.63;;;;;;;12.58;66.37;99517.84;6159467;23;20542;-89
2022/11/08 05:30:04;;;;;;;18.73;6.60;;;;;;;12.67;66.48;99512.91;6159613;23;20188;-89
2022/11/08 05:32:30;;;;;;;13.43;7.10;;;;;;;12.69;66.34;99518.94;6185494;23;20149;-88
2022/11/08 05:34:55;;;;;;;12.70;6.77;;;;;;;12.74;66.66;99521.28;6159571;23;20550;-89
2022/11/08 05:37:21;;;;;;;16.00;6.33;;;;;;;12.83;66.82;99529.53;6185541;23;20586;-89
2022/11/08 05:39:46;;;;;;;14.10;6.83;;;;;;;12.92;66.60;99529.03;6184342;23;20164;-89
2022/11/08 05:42:11;;;;;;;13.40;6.63;;;;;;;12.97;66.00;99535.81;6185540;23;20651;-88
2022/11/08 05:44:37;;;;;;;15.70;7.63;;;;;;;12.94;64.89;99539.47;6184205;23;20650;-89
2022/11/08 05:47:02;;;;;;;16.40;7.23;;;;;;;12.97;63.98;99541.09;6184689;23;20233;-89
2022/11/08 05:49:28;;;;;;;20.87;8.50;;;;;;;13.04;63.86;99542.44;6185933;23;20208;-88
2022/11/08 05:51:53;;;;;;;14.90;7.43;;;;;;;13.10;63.41;99552.66;6159394;23;20594;-88
2022/11/08 05:54:18;;;;;;;22.50;9.13;;;;;;;13.19;63.12;99554.75;6185365;23;20565;-89
2022/11/08 05:56:44;;;;;;;17.23;8.60;;;;;;;13.32;63.01;99556.59;6159330;23;20226;-88
2022/11/08 05:59:09;;;;;;;12.43;7.10;;;;;;;13.39;63.26;99554.50;6159357;23;20164;-88
2022/11/08 06:01:35;;;;;;;15.43;6.47;;;;;;;13.51;63.36;99559.03;6185386;23;20208;-89
2022/11/08 06:04:00;;;;;;;16.20;7.17;;;;;;;13.59;64.06;99563.88;6185281;23;20219;-88
2022/11/08 06:06:26;;;;;;;17.93;9.00;;;;;;;13.68;64.48;99565.97;6185575;23;20228;-89
2022/11/08 06:08:51;;;;;;;14.67;7.80;;;;;;;13.74;64.37;99566.44;6159631;23;20213;-88
2022/11/08 06:11:22;;;;;;;15.77;7.57;;;;;;;13.73;64.04;99580.53;6159194;23;20186;-88
2022/11/08 06:13:48;;;;;;;27.70;9.63;;;;;;;13.82;63.79;99585.28;6185585;23;20212;-88
2022/11/08 06:16:16;;;;;;;26.07;9.67;;;;;;;13.93;63.65;99580.25;6185533;23;20511;-89
2022/11/08 06:18:42;;;;;;;21.30;9.33;;;;;;;14.02;63.14;99584.97;6159222;23;20165;-88
2022/11/08 06:21:11;;;;;;;18.07;7.47;;;;;;;14.10;63.31;99580.09;6159270;23;20153;-89
2022/11/08 06:23:36;;;;;;;14.83;7.10;;;;;;;14.21;63.45;99581.22;6159171;23;20240;-89
2022/11/08 06:26:02;;;;;;;22.27;7.70;;;;;;;14.31;63.56;99587.66;6159106;23;20178;-89
2022/11/08 06:28:28;;;;;;;15.97;7.37;;;;;;;14.38;63.79;99583.72;6185406;23;20161;-88
2022/11/08 06:30:53;;;;;;;14.40;7.27;;;;;;;14.37;64.29;99582.88;6159031;23;20629;-89
2022/11/08 06:33:20;;;;;;;14.07;6.83;;;;;;;14.39;64.41;99588.03;6159541;23;20155;-89
2022/11/08 06:35:45;;;;;;;15.60;7.97;;;;;;;14.42;64.55;99586.09;6159090;23;20154;-89
2022/11/08 06:38:11;;;;;;;28.07;10.73;;;;;;;14.53;64.48;99586.28;6185280;23;20223;-89
2022/11/08 06:40:38;;;;;;;23.67;10.93;;;;;;;14.59;64.05;99587.69;6187164;23;20157;-89
2022/11/08 06:43:04;;;;;;;20.70;9.67;;;;;;;14.69;64.05;99592.31;6161130;23;20155;-88
2022/11/08 06:45:30;;;;;;;18.63;9.77;;;;;;;14.70;63.85;99590.53;6187080;23;20442;-89
2022/11/08 06:47:57;;;;;;;27.20;9.00;;;;;;;14.65;63.42;99598.72;6185890;23;20242;-89
2022/11/08 06:50:22;;;;;;;15.73;8.67;;;;;;;14.73;63.57;99595.59;6160966;23;20189;-89
2022/11/08 06:52:54;;;;;;;17.00;8.50;;;;;;;14.81;63.83;99590.69;6188057;23;20150;-89
2022/11/08 06:55:20;;;;;;;15.47;8.17;;;;;;;14.93;63.83;99587.28;6187717;23;20136;-89
2022/11/08 06:57:45;;;;;;;18.50;8.97;;;;;;;15.06;63.85;99590.84;6187050;23;20155;-89
2022/11/08 07:00:11;;;;;;;19.83;9.10;;;;;;;15.20;63.94;99585.50;6186988;23;20148;-89
2022/11/08 07:02:37;;;;;;;24.87;9.73;;;;;;;15.23;63.70;99592.41;6187006;23;20159;-89
2022/11/08 07:05:02;;;;;;;19.77;9.90;;;;;;;15.38;63.74;99596.72;6187175;23;20232;-89
2022/11/08 07:07:27;;;;;;;18.30;8.80;;;;;;;15.52;64.20;99590.53;6185748;23;20158;-88
2022/11/08 07:09:53;;;;;;;17.57;10.03;;;;;;;15.68;63.96;99593.88;6160770;23;20612;-89
2022/11/08 07:12:18;;;;;;;18.73;9.97;;;;;;;15.86;63.40;99590.00;6160924;23;20528;-89
2022/11/08 07:14:44;;;;;;;21.80;8.90;;;;;;;15.91;62.67;99585.25;6186898;23;20485;-89
2022/11/08 07:17:09;;;;;;;28.43;11.37;;;;;;;15.87;63.11;99592.56;6186843;23;20575;-89
2022/11/08 07:19:35;;;;;;;24.13;11.27;;;;;;;16.06;62.21;99586.88;6187262;23;20146;-89
2022/11/08 07:22:00;;;;;;;20.47;10.80;;;;;;;16.29;60.75;99587.94;6160782;23;20162;-89
2022/11/08 07:24:25;;;;;;;16.37;9.80;;;;;;;16.34;61.19;99591.13;6186762;23;20227;-89
2022/11/08 07:26:51;;;;;;;25.30;10.20;;;;;;;16.40;61.22;99582.78;6185600;23;20185;-89
2022/11/08 07:29:16;;;;;;;18.57;10.00;;;;;;;16.50;60.39;99589.97;6186935;23;20198;-89
2022/11/08 07:31:42;;;;;;;33.63;9.80;;;;;;;16.64;59.79;99582.91;6160678;23;20215;-89
2022/11/08 07:34:07;;;;;;;32.23;11.07;;;;;;;16.73;59.56;99585.75;6187021;23;20160;-89
2022/11/08 07:36:32;;;;;;;16.90;9.97;;;;;;;16.83;58.84;99583.28;6186662;23;20164;-89
2022/11/08 07:38:58;;;;;;;23.73;9.60;;;;;;;16.88;59.16;99581.13;6160664;23;20298;-89
2022/11/08 07:41:23;;;;;;;21.77;10.27;;;;;;;16.99;58.11;99591.81;6186627;23;20150;-89
2022/11/08 07:43:49;;;;;;;18.93;10.30;;;;;;;17.08;57.26;99575.28;6160678;23;20264;-89
2022/11/08 07:46:14;;;;;;;17.17;9.47;;;;;;;17.19;57.49;99583.28;6186528;23;20168;-89
2022/11/08 07:48:40;;;;;;;22.10;9.70;;;;;;;17.23;57.38;99579.47;6186556;23;20154;-89
2022/11/08 07:51:05;;;;;;;22.10;10.40;;;;;;;17.35;57.00;99578.56;6186232;23;20184;-90
2022/11/08 07:53:31;;;;;;;25.23;10.33;;;;;;;17.29;57.21;99575.53;6160421;23;20236;-89
2022/11/08 07:55:57;;;;;;;21.10;10.10;;;;;;;17.26;57.45;99576.59;6186798;23;20153;-90
2022/11/08 07:58:22;;;;;;;25.13;9.87;;;;;;;17.53;55.71;99569.28;6160846;23;20592;-90
2022/11/08 08:00:48;;;;;;;25.73;9.63;;;;;;;17.62;55.84;99575.72;6185965;23;20223;-89
2022/11/08 08:03:14;;;;;;;22.10;10.03;;;;;;;17.55;55.97;99567.38;6160832;23;20168;-89
2022/11/08 08:05:42;;;;;;;20.03;9.57;;;;;;;17.65;55.91;99573.69;6161182;23;20158;-89
2022/11/08 08:08:09;;;;;;;22.50;10.53;;;;;;;17.86;55.20;99570.38;6186372;23;20143;-89
2022/11/08 08:10:35;;;;;;;23.27;10.80;;;;;;;17.91;55.09;99563.78;6160553;23;20178;-89
2022/11/08 08:13:02;;;;;;;33.13;13.77;;;;;;;18.09;54.41;99570.34;6186623;23;20146;-89
2022/11/08 08:15:27;;;;;;;21.47;11.43;;;;;;;18.23;54.55;99569.28;6186627;23;20586;-89
2022/11/08 08:17:53;;;;;;;20.07;10.77;;;;;;;18.26;54.74;99567.22;6160598;23;20189;-90
2022/11/08 08:20:19;;;;;;;23.50;10.10;;;;;;;18.43;53.71;99572.06;6185742;23;20158;-89
2022/11/08 08:22:48;;;;;;;23.27;9.77;;;;;;;18.53;53.59;99569.56;6160210;23;20158;-89
2022/11/08 08:25:15;;;;;;;19.60;9.60;;;;;;;18.79;52.06;99567.50;6186623;23;20151;-89
2022/11/08 08:27:46;;;;;;;19.07;9.93;;;;;;;18.85;53.02;99567.88;6185957;23;20151;-89
2022/11/08 08:30:12;;;;;;;16.90;8.50;;;;;;;19.03;51.99;99568.22;6186835;23;20193;-89
2022/11/08 08:32:37;;;;;;;24.83;10.17;;;;;;;19.22;50.98;99564.94;6185914;23;20183;-89
2022/11/08 08:35:03;;;;;;;20.83;9.27;;;;;;;19.28;51.64;99564.44;6186389;23;20520;-89
2022/11/08 08:37:28;;;;;;;22.27;9.83;;;;;;;19.33;50.78;99568.41;6159948;23;20518;-90
2022/11/08 08:39:54;;;;;;;16.83;8.43;;;;;;;19.42;51.23;99566.81;6186414;23;20220;-89
2022/11/08 08:42:19;;;;;;;21.70;10.23;;;;;;;19.56;50.73;99570.06;6186376;23;20238;-90
2022/11/08 08:44:44;;;;;;;19.60;8.77;;;;;;;19.71;49.88;99573.25;6160351;23;20158;-90
2022/11/08 08:47:10;;;;;;;20.13;8.23;;;;;;;19.77;50.09;99567.44;6160277;23;20159;-90
2022/11/08 08:49:35;;;;;;;24.27;10.43;;;;;;;19.82;50.16;99575.00;6160292;23;20190;-90
2022/11/08 08:52:01;;;;;;;18.37;8.83;;;;;;;19.88;49.85;99564.72;6159919;23;20150;-90
2022/11/08 08:54:26;;;;;;;16.03;9.47;;;;;;;19.91;48.80;99564.47;6186233;23;20158;-89
2022/11/08 08:56:52;;;;;;;19.80;9.63;;;;;;;19.94;48.79;99564.19;6185038;23;20154;-89
2022/11/08 08:59:18;;;;;;;18.23;9.30;;;;;;;20.03;49.16;99566.09;6185929;23;20150;-91
2022/11/08 09:01:43;;;;;;;21.27;8.43;;;;;;;20.26;48.48;99572.13;6186089;23;20147;-90
2022/11/08 09:04:09;;;;;;;17.97;9.50;;;;;;;20.36;47.60;99556.25;6160159;23;20154;-89
2022/11/08 09:06:34;;;;;;;20.27;8.53;;;;;;;20.40;47.55;99565.63;6159800;23;20159;-89
2022/11/08 09:08:59;;;;;;;19.67;8.57;;;;;;;20.66;47.44;99561.56;6159759;23;20479;-89
2022/11/08 09:11:25;;;;;;;19.60;9.83;;;;;;;20.70;46.88;99557.66;6186326;23;20219;-90
2022/11/08 09:13:50;;;;;;;20.17;10.20;;;;;;;20.94;46.33;99554.66;6160028;23;20154;-90
2022/11/08 09:16:16;;;;;;;23.67;10.20;;;;;;;20.95;45.84;99551.84;6160095;23;20167;-89
2022/11/08 09:18:42;;;;;;;22.20;10.17;;;;;;;20.85;45.48;99564.31;6185676;23;20537;-89
2022/11/08 09:21:07;;;;;;;19.43;9.87;;;;;;;20.87;45.65;99554.34;6185726;23;20142;-90
2022/11/08 09:23:33;;;;;;;18.07;8.93;;;;;;;20.77;45.59;99559.66;6185643;23;20153;-90
2022/11/08 09:26:00;;;;;;;19.47;10.47;;;;;;;20.83;45.73;99556.44;6159568;23;20162;-89
2022/11/08 09:28:26;;;;;;;25.73;10.93;;;;;;;21.01;45.56;99559.31;6159893;23;20154;-89
2022/11/08 09:30:52;;;;;;;18.23;9.13;;;;;;;21.13;45.49;99554.72;6159833;23;20555;-89
2022/11/08 09:33:17;;;;;;;20.70;10.07;;;;;;;21.26;45.26;99557.97;6185587;23;20471;-89
2022/11/08 09:35:45;;;;;;;16.77;9.00;;;;;;;21.31;44.76;99553.94;6185475;23;20151;-90
2022/11/08 09:38:10;;;;;;;17.93;10.07;;;;;;;21.28;45.11;99564.00;6185746;23;20150;-89
2022/11/08 09:41:02;;;;;;;25.77;10.30;;;;;;;21.33;44.71;99556.47;6186200;23;20170;-90
2022/11/08 09:44:05;;;;;;;20.83;8.93;;;;;;;21.19;44.87;99555.03;6159516;23;20232;-90
2022/11/08 09:46:51;;;;;;;21.17;9.37;;;;;;;21.13;45.29;99552.06;6120244;23;20158;-90
2022/11/08 09:49:36;;;;;;;16.50;8.83;;;;;;;21.16;44.86;99552.66;6159406;23;20567;-90
2022/11/08 09:52:03;;;;;;;16.63;8.57;;;;;;;21.17;45.44;99554.31;6185690;23;20495;-90
2022/11/08 09:54:40;;;;;;;21.53;10.77;;;;;;;21.26;45.40;99556.16;6185335;23;20589;-90
2022/11/08 09:57:19;;;;;;;21.03;10.50;;;;;;;21.30;45.49;99552.22;6185722;23;20220;-90
2022/11/08 09:59:53;;;;;;;16.70;8.30;;;;;;;21.41;44.10;99549.44;6160374;23;20143;-90
2022/11/08 10:02:22;;;;;;;14.17;7.67;;;;;;;21.48;43.88;99549.75;6185650;23;20146;-90
2022/11/08 10:04:57;;;;;;;17.40;7.60;;;;;;;21.48;44.43;99554.22;6185254;23;20147;-90
2022/11/08 10:07:54;;;;;;;16.93;6.87;;;;;;;21.56;43.85;99559.72;6185686;23;20213;-90
2022/11/08 10:10:47;;;;;;;15.93;6.27;;;;;;;21.59;43.83;99552.28;6176753;23;20208;-89
2022/11/08 10:13:43;;;;;;;19.17;7.40;;;;;;;21.54;43.96;99548.34;6184274;23;20154;-89
2022/11/08 10:16:25;;;;;;;16.40;7.03;;;;;;;21.57;43.79;99540.03;6185862;23;20151;-90
2022/11/08 10:19:33;;;;;;;13.47;7.23;;;;;;;21.54;43.99;99538.50;6184388;23;20182;-89
2022/11/08 10:22:04;;;;;;;13.27;6.63;;;;;;;21.49;43.99;99535.41;6160152;23;20548;-89
2022/11/08 10:24:46;;;;;;;12.13;6.83;;;;;;;21.56;43.85;99530.38;6185521;23;20170;-89
2022/11/08 10:27:15;;;;;;;22.67;7.50;;;;;;;21.61;43.85;99530.78;6185756;23;20511;-90
2022/11/08 10:29:43;;;;;;;13.73;7.53;;;;;;;21.70;43.25;99529.94;6183632;23;20190;-90
2022/11/08 10:32:22;;;;;;;12.33;6.97;;;;;;;21.75;43.41;99531.19;6185204;23;20233;-90
2022/11/08 10:34:57;;;;;;;19.67;7.17;;;;;;;21.76;43.53;99534.72;6185742;23;20148;-90
2022/11/08 10:37:24;;;;;;;17.53;7.23;;;;;;;21.82;43.54;99527.00;6159204;23;20488;-89
2022/11/08 10:39:58;;;;;;;12.03;7.13;;;;;;;21.86;43.13;99532.91;6185455;23;20158;-90
2022/11/08 10:42:45;;;;;;;18.27;7.97;;;;;;;21.89;43.03;99529.94;6159027;23;20146;-89
2022/11/08 10:45:11;;;;;;;18.73;8.27;;;;;;;21.81;43.31;99527.97;6159930;23;20478;-89
2022/11/08 10:47:38;;;;;;;17.60;8.63;;;;;;;21.82;43.30;99531.47;6185042;23;20571;-90
2022/11/08 10:50:16;;;;;;;14.87;8.53;;;;;;;21.90;42.91;99526.31;6159034;23;20502;-90
2022/11/08 10:53:12;;;;;;;22.60;9.13;;;;;;;21.75;43.25;99519.69;6185052;23;20141;-90
2022/11/08 10:55:46;;;;;;;16.83;7.83;;;;;;;21.81;43.92;99521.78;6183033;23;20158;-90
2022/11/08 10:58:38;;;;;;;16.50;7.87;;;;;;;21.65;42.99;99519.69;6185308;23;20528;-89
2022/11/08 11:01:17;;;;;;;16.87;7.57;;;;;;;21.76;43.01;99511.53;6185049;23;20177;-90
2022/11/08 11:03:44;;;;;;;20.17;8.77;;;;;;;21.77;43.19;99512.38;6159049;23;20150;-89
2022/11/08 11:06:31;;;;;;;15.37;7.77;;;;;;;21.76;42.96;99505.34;6183753;23;20170;-89
2022/11/08 11:09:02;;;;;;;15.80;8.37;;;;;;;21.76;43.30;99500.00;6185030;23;20146;-90
2022/11/08 11:11:30;;;;;;;17.53;8.40;;;;;;;21.82;43.35;99497.63;6158884;23;20178;-90
2022/11/08 11:14:22;;;;;;;16.67;8.37;;;;;;;21.86;42.87;99496.38;6185307;23;20151;-90
2022/11/08 11:16:51;;;;;;;19.20;9.10;;;;;;;21.88;43.09;99497.06;6179918;23;20169;-89
2022/11/08 11:19:16;;;;;;;18.47;8.37;;;;;;;21.86;43.16;99495.53;6184899;23;20150;-89
2022/11/08 11:21:43;;;;;;;22.33;8.67;;;;;;;21.82;43.21;99494.13;6159019;23;20455;-91
2022/11/08 11:24:18;;;;;;;17.80;8.07;;;;;;;21.82;43.03;99488.78;6184100;23;20170;-90
2022/11/08 11:27:05;;;;;;;18.90;9.80;;;;;;;21.69;43.06;99488.25;6162123;23;20158;-89
2022/11/08 11:29:33;;;;;;;14.33;8.20;;;;;;;21.74;43.02;99480.66;6161137;23;20269;-90
2022/11/08 11:32:38;;;;;;;21.43;9.50;;;;;;;21.52;43.09;99479.13;6186991;23;20157;-90
2022/11/08 11:35:11;;;;;;;23.40;9.17;;;;;;;21.63;42.91;99480.78;6187054;23;20142;-90
2022/11/08 11:37:43;;;;;;;21.07;9.70;;;;;;;21.56;42.99;99477.00;6186983;23;20134;-90
2022/11/08 11:40:36;;;;;;;23.03;9.27;;;;;;;21.76;43.22;99476.84;6186672;23;20220;-89
2022/11/08 11:43:15;;;;;;;17.90;8.73;;;;;;;21.75;43.21;99477.00;6187247;23;20543;-90
2022/11/08 11:45:59;;;;;;;16.07;8.37;;;;;;;21.95;42.75;99471.50;6186888;23;20158;-89
2022/11/08 11:48:29;;;;;;;19.07;8.03;;;;;;;21.96;42.27;99472.34;6187204;23;20142;-90
2022/11/08 11:50:56;;;;;;;16.80;9.20;;;;;;;22.08;42.37;99471.19;6160347;23;20604;-90
2022/11/08 11:53:26;;;;;;;21.07;8.03;;;;;;;22.28;42.27;99471.97;6160370;23;20169;-90